• Join FlightAware (Why Join?)
  • Login
  • US Flag 
01:58AM EDT


 

Airport Tracker/Info


-or-


 

Live Flight TrackerFlight Track Log ✈ UAL4206 ✈ 09-Jun-2014 ✈ CYOW - KIAD

Flight Track Log - Related Links

Times and Time Zones

All times are in EDT time to prevent confusion due to time zone crossing. See the UAL4206 flight status page for this flight to view local times or setup timezone preferences in your user account.

Time Position Orientation Groundspeed Altitude Reporting Facility
EDT Latitude Longitude Course Direction KTS MPH feet Rate Location/Type
08:20PM 42.9981 -76.3154 211° Southwest  Level FlightAware Approximate
08:21PM 42.9005 -76.3961 211° Southwest  Level FlightAware Approximate
08:22PM 42.8027 -76.4766 211° Southwest  Level FlightAware Approximate
08:23PM 42.7050 -76.5568 211° Southwest  Level FlightAware Approximate
08:24PM 42.6071 -76.6368 211° Southwest  Level FlightAware Approximate
08:25PM 42.5091 -76.7162 211° Southwest  Level FlightAware Approximate
08:26PM 42.4108 -76.7949 211° Southwest  Level FlightAware Approximate
08:27PM 42.3125 -76.8734 211° Southwest  Level FlightAware Approximate
08:28PM 42.2156 -76.9549 212° Southwest  Level FlightAware Approximate
08:29PM 42.1189 -77.0367 212° Southwest  Level FlightAware Approximate
08:30PM 42.0213 -77.1165 211° Southwest  Level FlightAware Approximate
08:31PM 41.9232 -77.1950 211° Southwest  Level FlightAware Approximate
08:32PM 41.8251 -77.2734 211° Southwest  Level FlightAware Approximate
08:33PM 41.7276 -77.3529 211° Southwest  Level FlightAware Approximate
08:34PM 41.6300 -77.4321 211° Southwest  Level FlightAware Approximate
08:35PM 41.5318 -77.5100 210° Southwest  Level FlightAware Approximate
08:36PM 41.4327 -77.5856 210° Southwest  Level FlightAware Approximate
08:37PM 41.3335 -77.6610 210° Southwest  Level FlightAware Approximate
08:38PM 41.2245 -77.7435 210° Southwest  Level FlightAware Approximate
08:39PM 41.1155 -77.8257 210° Southwest  Level FlightAware Approximate
08:40PM 41.0063 -77.9074 208° Southwest  Level FlightAware Approximate
08:41PM 40.8966 -77.9793 139° Southeast  Level FlightAware Approximate
08:42PM 40.8026 -77.8697 139° Southeast  Level FlightAware Approximate
08:43PM 40.7048 -77.7660 141° Southeast  Level FlightAware Approximate
08:44PM 40.6100 -77.6661 141° Southeast  Level FlightAware Approximate
08:45PM 40.5150 -77.5665 141° Southeast  Level FlightAware Approximate
08:46PM 40.4190 -77.4689 143° Southeast  Level FlightAware Approximate
08:47PM 40.3224 -77.3724 143° Southeast  Level FlightAware Approximate
08:48PM 40.2358 -77.2755 134° Southeast  Level FlightAware Approximate
08:49PM 40.1477 -77.1809 143° Southeast  Level FlightAware Approximate
08:50PM 40.0545 -77.1000 180° South  Level FlightAware Approximate
08:51PM 39.9455 -77.1309 189° South  Level FlightAware Approximate
08:52PM 39.8349 -77.1659 201° Southwest  Level FlightAware Approximate
08:53PM 39.7257 -77.2081 194° South  Level FlightAware Approximate
08:54PM 39.6422 -77.2911 218° Southwest  Level FlightAware Approximate
08:55PM 39.5444 -77.3333 180° South  Level FlightAware Approximate
08:56PM 39.4307 -77.3462 186° South  Level FlightAware Approximate
08:57PM 39.3167 -77.3500 180° South  Level FlightAware Approximate
08:58PM 39.2025 -77.3500 180° South  Level FlightAware Approximate
08:59PM 39.0884 -77.3500 180° South  Level FlightAware Approximate
09:00PM 38.9742 -77.3500 180° South  Level FlightAware Approximate
09:01PM 38.9474 -77.4599 180° South  Level Estimated
09:02PM 38.9474 -77.4599 180° South  Level Estimated
09:03PM 38.9474 -77.4599 345° North  Level Estimated
09:04PM 38.9474 -77.4599 339° North  Level Estimated
09:05PM 38.9474 -77.4599 349° North  Level Estimated
09:06PM 38.9474 -77.4599 349° North  Level Estimated
09:07PM 38.9474 -77.4599 349° North  Level Estimated
09:08PM 38.9474 -77.4599 349° North  Level Estimated
09:09PM 38.9474 -77.4599 349° North  Level Estimated
09:10PM 38.9474 -77.4599 349° North  Level Estimated
09:11PM 38.9474 -77.4599 349° North  Level Estimated
09:12PM 38.9474 -77.4599 349° North  Level Estimated
09:13PM 38.9474 -77.4599 349° North  Level Estimated
09:14PM 38.9474 -77.4599 349° North  Level Estimated
09:15PM 38.9474 -77.4599 349° North  Level Estimated
09:16PM 38.9474 -77.4599 349° North  Level Estimated
09:17PM 38.9474 -77.4599 349° North  Level Estimated
09:18PM 38.9474 -77.4599 349° North  Level Estimated
09:19PM 38.9474 -77.4599 349° North  Level Estimated
09:20PM 38.9474 -77.4599 349° North  Level Estimated
09:21PM 38.9474 -77.4599 349° North  Level Estimated
09:22PM 38.9474 -77.4599 349° North  Level Estimated